Time;durP1;ratioP1;P1;durP2;ratioP2;P2;SDS_P1;SDS_P2;PMS_P1;PMS_P2;Temp;Humidity;BMP_temperature;BMP_pressure;BME280_temperature;BME280_humidity;BME280_pressure;Samples;Min_cycle;Max_cycle;Signal;HPM_P1;HPM_P2
2023/07/15 00:01:23;;;;;;;8.07;0.95;;;;;;;18.99;92.51;99744.09;7359819;19;20010;-61
2023/07/15 00:03:52;;;;;;;3.80;0.50;;;;;;;18.97;92.61;99743.50;7363192;19;20025;-62
2023/07/15 00:06:21;;;;;;;7.63;0.65;;;;;;;18.97;92.96;99737.34;7361723;19;20074;-63
2023/07/15 00:08:50;;;;;;;5.32;0.63;;;;;;;18.96;92.61;99739.22;7356853;19;20038;-62
2023/07/15 00:11:37;;;;;;;5.50;0.60;;;;;;;18.95;92.43;99755.44;7361271;19;20041;-62
2023/07/15 00:14:21;;;;;;;6.05;0.50;;;;;;;18.94;92.38;99757.31;7361906;19;20423;-62
2023/07/15 00:16:50;;;;;;;8.38;0.70;;;;;;;18.93;92.49;99747.69;7362220;19;20014;-61
2023/07/15 00:19:18;;;;;;;6.50;0.50;;;;;;;18.92;92.53;99754.06;7359889;19;20084;-61
2023/07/15 00:21:47;;;;;;;4.35;0.52;;;;;;;18.93;93.11;99753.03;7362114;19;20484;-62
2023/07/15 00:24:14;;;;;;;6.90;0.50;;;;;;;18.90;92.41;99755.31;7359693;19;20037;-62
2023/07/15 00:26:42;;;;;;;5.40;0.40;;;;;;;18.90;92.25;99753.47;7358998;19;20018;-63
2023/07/15 00:29:09;;;;;;;6.57;0.55;;;;;;;18.89;92.57;99756.38;7362345;19;20019;-62
2023/07/15 00:31:36;;;;;;;4.80;0.50;;;;;;;18.90;92.05;99763.31;7359217;19;20019;-62
2023/07/15 00:34:04;;;;;;;9.55;1.40;;;;;;;18.86;92.24;99752.31;7360553;19;20022;-62
2023/07/15 00:36:33;;;;;;;7.50;0.82;;;;;;;18.85;92.19;99750.69;7358203;19;20025;-62
2023/07/15 00:39:00;;;;;;;6.50;0.55;;;;;;;18.85;92.78;99749.88;7363329;19;20018;-63
2023/07/15 00:41:30;;;;;;;11.70;1.05;;;;;;;18.79;92.11;99748.97;7360961;19;20040;-62
2023/07/15 00:43:58;;;;;;;8.55;0.57;;;;;;;18.76;92.02;99754.75;7362702;19;20030;-64
2023/07/15 00:46:36;;;;;;;6.55;0.70;;;;;;;18.71;91.91;99762.63;7362279;19;20017;-61
2023/07/15 00:49:15;;;;;;;10.48;1.25;;;;;;;18.70;92.61;99759.16;7363284;19;20021;-63
2023/07/15 00:51:47;;;;;;;8.27;0.73;;;;;;;18.70;93.91;99759.16;7357770;19;20006;-62
2023/07/15 00:54:15;;;;;;;12.55;0.82;;;;;;;18.69;93.33;99759.41;7361061;19;20455;-62
2023/07/15 00:56:45;;;;;;;13.70;1.23;;;;;;;18.64;92.86;99756.63;7363049;19;20053;-62
2023/07/15 00:59:15;;;;;;;7.53;0.68;;;;;;;18.63;92.69;99755.81;7361261;19;20034;-61
2023/07/15 01:01:44;;;;;;;8.50;0.75;;;;;;;18.60;92.54;99763.44;7356268;19;20013;-61
2023/07/15 01:04:12;;;;;;;7.85;1.77;;;;;;;18.60;92.90;99752.78;7359136;19;20502;-61
2023/07/15 01:06:41;;;;;;;7.40;0.60;;;;;;;18.63;93.47;99755.00;7363570;19;20058;-62
2023/07/15 01:09:09;;;;;;;12.52;1.10;;;;;;;18.63;93.66;99750.50;7359368;19;20018;-61
2023/07/15 01:11:37;;;;;;;7.20;1.05;;;;;;;18.62;92.82;99748.88;7360952;19;20015;-62
2023/07/15 01:14:05;;;;;;;7.20;0.85;;;;;;;18.61;93.07;99757.06;7361264;19;20022;-63
2023/07/15 01:16:32;;;;;;;10.90;1.38;;;;;;;18.58;92.78;99747.72;7361570;19;20408;-62
2023/07/15 01:19:00;;;;;;;9.73;1.20;;;;;;;18.60;93.53;99745.59;7359932;19;20007;-63
2023/07/15 01:21:31;;;;;;;6.40;1.05;;;;;;;18.59;93.48;99749.31;7354383;19;20010;-62
2023/07/15 01:23:58;;;;;;;6.85;0.70;;;;;;;18.57;92.92;99758.59;7360424;19;20047;-61
2023/07/15 01:26:25;;;;;;;7.25;0.82;;;;;;;18.57;92.92;99750.59;7361311;19;20033;-62
2023/07/15 01:28:52;;;;;;;8.90;1.05;;;;;;;18.58;93.05;99749.56;7361857;19;20026;-62
2023/07/15 01:31:20;;;;;;;8.15;1.00;;;;;;;18.58;93.21;99746.91;7362236;19;20162;-61
2023/07/15 01:33:47;;;;;;;7.93;2.40;;;;;;;18.58;92.87;99742.38;7360252;19;20055;-61
2023/07/15 01:36:14;;;;;;;12.52;1.52;;;;;;;18.58;93.22;99746.91;7357453;19;20014;-61
2023/07/15 01:38:43;;;;;;;6.60;0.80;;;;;;;18.57;93.24;99758.59;7361557;19;20021;-62
2023/07/15 01:41:10;;;;;;;6.40;0.70;;;;;;;18.54;93.27;99748.41;7360318;19;20010;-62
2023/07/15 01:43:37;;;;;;;8.40;1.77;;;;;;;18.53;93.08;99752.88;7359785;19;20021;-62
2023/07/15 01:46:05;;;;;;;10.40;1.27;;;;;;;18.51;92.80;99749.63;7358482;19;20049;-62
2023/07/15 01:48:32;;;;;;;5.97;0.82;;;;;;;18.52;93.12;99740.59;7358013;19;20025;-63
2023/07/15 01:51:00;;;;;;;12.00;1.55;;;;;;;18.54;93.48;99741.19;7355540;19;20049;-62
2023/07/15 01:53:27;;;;;;;6.97;0.98;;;;;;;18.53;93.29;99739.56;7361041;19;20014;-62
2023/07/15 01:55:54;;;;;;;8.27;1.40;;;;;;;18.53;92.97;99744.09;7359023;19;20518;-61
2023/07/15 01:58:21;;;;;;;10.70;1.40;;;;;;;18.55;92.66;99736.69;7358866;19;20043;-62
2023/07/15 02:00:49;;;;;;;14.30;1.52;;;;;;;18.58;92.50;99741.56;7355555;19;20010;-61
2023/07/15 02:03:16;;;;;;;11.65;1.02;;;;;;;18.60;92.97;99734.13;7356005;19;20356;-62
2023/07/15 02:05:44;;;;;;;12.40;1.50;;;;;;;18.60;93.10;99734.13;7361353;19;20018;-61
2023/07/15 02:08:11;;;;;;;11.52;1.60;;;;;;;18.59;92.86;99725.31;7358075;19;20085;-62
2023/07/15 02:10:39;;;;;;;10.63;1.05;;;;;;;18.58;92.98;99733.56;7357578;19;20022;-61
2023/07/15 02:13:06;;;;;;;7.20;1.08;;;;;;;18.56;93.29;99730.31;7357997;19;20879;-62
2023/07/15 02:15:33;;;;;;;9.20;1.20;;;;;;;18.54;93.56;99730.53;7360006;19;20022;-62
2023/07/15 02:18:00;;;;;;;9.68;1.00;;;;;;;18.55;93.74;99726.84;7358013;19;20022;-62
2023/07/15 02:20:27;;;;;;;14.80;1.48;;;;;;;18.57;93.96;99723.94;7357789;19;20767;-62
2023/07/15 02:22:55;;;;;;;11.50;0.90;;;;;;;18.54;93.64;99709.22;7357262;19;20022;-62
2023/07/15 02:25:22;;;;;;;9.23;0.90;;;;;;;18.51;93.71;99711.50;7358902;19;20011;-61
2023/07/15 02:27:49;;;;;;;7.05;0.93;;;;;;;18.49;93.92;99703.75;7359229;19;20491;-62
2023/07/15 02:30:16;;;;;;;11.88;2.20;;;;;;;18.47;94.11;99708.50;7360868;19;20019;-61
2023/07/15 02:32:44;;;;;;;11.80;1.13;;;;;;;18.48;95.14;99715.47;7358387;19;20047;-62
2023/07/15 02:35:13;;;;;;;12.10;0.93;;;;;;;18.48;94.85;99706.66;7357143;19;20021;-63
2023/07/15 02:37:43;;;;;;;7.72;0.88;;;;;;;18.45;94.85;99702.59;7355323;19;20015;-63
2023/07/15 02:40:11;;;;;;;6.55;0.85;;;;;;;18.47;94.92;99699.72;7358065;19;20021;-62
2023/07/15 02:42:39;;;;;;;6.68;1.25;;;;;;;18.47;94.95;99697.03;7357692;19;20014;-62
2023/07/15 02:45:09;;;;;;;13.15;2.60;;;;;;;18.45;94.70;99694.59;7359111;19;20017;-62
2023/07/15 02:47:39;;;;;;;11.60;0.85;;;;;;;18.48;94.76;99691.50;7357219;19;20037;-61
2023/07/15 02:50:08;;;;;;;11.02;1.63;;;;;;;18.49;95.10;99679.00;7359354;19;20721;-62
2023/07/15 02:52:37;;;;;;;11.13;1.35;;;;;;;18.47;94.83;99681.88;7365483;19;20090;-62
2023/07/15 02:55:07;;;;;;;13.57;1.45;;;;;;;18.46;94.74;99682.91;7364445;19;21880;-62
2023/07/15 02:57:34;;;;;;;12.73;1.13;;;;;;;18.47;94.29;99678.41;7366492;19;20736;-62
2023/07/15 03:00:15;;;;;;;13.70;1.48;;;;;;;18.45;94.53;99683.94;7364827;19;20819;-62
2023/07/15 03:02:44;;;;;;;11.85;1.63;;;;;;;18.46;95.15;99682.09;7359331;19;21205;-62
2023/07/15 03:05:12;;;;;;;12.02;1.20;;;;;;;18.47;94.66;99681.06;7363381;19;20018;-62
2023/07/15 03:07:44;;;;;;;10.65;1.30;;;;;;;18.47;94.32;99681.88;7359859;19;21031;-63
2023/07/15 03:10:13;;;;;;;8.50;0.95;;;;;;;18.46;94.07;99680.25;7364004;19;20014;-62
2023/07/15 03:12:42;;;;;;;10.07;0.68;;;;;;;18.44;94.51;99665.56;7360884;19;20014;-63
2023/07/15 03:15:10;;;;;;;12.43;1.35;;;;;;;18.47;95.32;99675.72;7363311;19;21783;-62
2023/07/15 03:17:37;;;;;;;11.93;1.40;;;;;;;18.48;94.80;99659.53;7364325;19;20011;-62
2023/07/15 03:20:14;;;;;;;9.63;2.05;;;;;;;18.48;94.95;99664.03;7364703;19;21673;-61
2023/07/15 03:22:42;;;;;;;13.00;1.10;;;;;;;18.48;94.30;99664.03;7365214;19;20026;-63
2023/07/15 03:25:09;;;;;;;12.38;0.95;;;;;;;18.46;94.27;99666.13;7363709;19;20023;-64
2023/07/15 03:27:37;;;;;;;8.18;0.70;;;;;;;18.45;93.78;99661.81;7362128;19;20027;-62
2023/07/15 03:30:07;;;;;;;8.88;0.90;;;;;;;18.47;93.81;99662.41;7364355;19;20010;-66
2023/07/15 03:32:37;;;;;;;9.75;0.95;;;;;;;18.49;94.08;99663.00;7362902;19;20010;-62
2023/07/15 03:35:05;;;;;;;13.23;1.05;;;;;;;18.47;93.68;99665.06;7363108;19;20586;-63
2023/07/15 03:37:33;;;;;;;11.77;0.90;;;;;;;18.46;93.36;99664.25;7364363;19;20037;-62
2023/07/15 03:40:04;;;;;;;6.85;0.80;;;;;;;18.46;93.41;99650.13;7364431;19;20018;-62
2023/07/15 03:42:31;;;;;;;10.77;1.48;;;;;;;18.47;93.64;99659.75;7366259;19;20025;-61
2023/07/15 03:44:58;;;;;;;10.98;1.30;;;;;;;18.45;93.42;99667.16;7361333;19;20022;-62
2023/07/15 03:47:25;;;;;;;11.55;1.02;;;;;;;18.45;92.93;99659.97;7366314;19;20494;-61
2023/07/15 03:49:53;;;;;;;7.70;0.90;;;;;;;18.44;92.90;99661.00;7362379;19;20014;-62
2023/07/15 03:52:20;;;;;;;10.27;1.08;;;;;;;18.43;92.96;99654.09;7363163;19;20019;-61
2023/07/15 03:54:47;;;;;;;12.55;1.17;;;;;;;18.44;93.08;99663.66;7362350;19;20034;-61
2023/07/15 03:57:15;;;;;;;8.05;0.95;;;;;;;18.43;93.08;99651.41;7363223;19;20013;-61
2023/07/15 03:59:42;;;;;;;9.85;0.75;;;;;;;18.44;92.65;99654.91;7363012;19;20078;-62
2023/07/15 04:02:09;;;;;;;5.85;0.60;;;;;;;18.46;93.20;99642.13;7357946;19;20029;-61
2023/07/15 04:04:36;;;;;;;9.38;0.75;;;;;;;18.47;92.91;99657.09;7360816;19;20506;-62
2023/07/15 04:07:04;;;;;;;8.77;0.80;;;;;;;18.47;92.84;99655.22;7364161;19;20029;-61
2023/07/15 04:09:31;;;;;;;9.50;0.77;;;;;;;18.47;92.67;99638.44;7363126;19;20018;-62
2023/07/15 04:11:58;;;;;;;11.82;1.55;;;;;;;18.50;92.70;99651.28;7360884;19;20404;-63
2023/07/15 04:14:26;;;;;;;10.15;0.82;;;;;;;18.50;92.58;99640.63;7358706;19;20014;-62
2023/07/15 04:16:53;;;;;;;10.13;0.70;;;;;;;18.50;92.25;99621.97;7363614;19;20297;-62
2023/07/15 04:19:21;;;;;;;7.38;0.60;;;;;;;18.51;92.25;99635.06;7363899;19;20058;-62
2023/07/15 04:21:48;;;;;;;13.57;0.77;;;;;;;18.52;92.20;99633.22;7361549;19;21783;-61
2023/07/15 04:24:15;;;;;;;12.32;1.10;;;;;;;18.53;92.36;99635.66;7361022;19;20011;-62
2023/07/15 04:26:43;;;;;;;8.20;1.52;;;;;;;18.55;93.06;99624.78;7362745;19;20013;-62
2023/07/15 04:29:10;;;;;;;6.55;1.00;;;;;;;18.57;93.03;99620.84;7364022;19;20049;-61
2023/07/15 04:31:37;;;;;;;5.88;0.77;;;;;;;18.58;93.00;99625.13;7358493;19;20356;-62
2023/07/15 04:34:05;;;;;;;11.25;0.77;;;;;;;18.58;93.20;99621.66;7358261;19;20471;-62
2023/07/15 04:36:32;;;;;;;9.18;0.75;;;;;;;18.60;93.47;99622.22;7364209;19;20019;-61
2023/07/15 04:39:00;;;;;;;10.18;0.80;;;;;;;18.60;92.93;99623.03;7362579;19;20011;-64
2023/07/15 04:41:27;;;;;;;21.00;9.85;;;;;;;18.62;92.91;99626.28;7361141;19;20527;-62
2023/07/15 04:43:54;;;;;;;7.43;1.00;;;;;;;18.62;92.77;99612.94;7358772;19;20010;-61
2023/07/15 04:46:22;;;;;;;5.75;0.73;;;;;;;18.61;92.67;99611.31;7363103;19;20022;-61
2023/07/15 04:48:49;;;;;;;11.10;1.30;;;;;;;18.61;93.22;99605.19;7361775;19;20085;-61
2023/07/15 04:51:16;;;;;;;12.20;1.00;;;;;;;18.61;92.77;99594.53;7363129;19;21821;-61
2023/07/15 04:53:43;;;;;;;8.82;0.75;;;;;;;18.62;92.67;99599.63;7360701;19;20038;-60
2023/07/15 04:56:11;;;;;;;8.48;1.20;;;;;;;18.64;92.69;99608.19;7361994;19;20729;-61
2023/07/15 04:58:39;;;;;;;8.25;0.60;;;;;;;18.66;92.25;99614.09;7360133;19;21024;-62
2023/07/15 05:01:06;;;;;;;7.65;0.60;;;;;;;18.68;91.78;99601.34;7358589;19;20401;-62
2023/07/15 05:03:33;;;;;;;6.68;0.70;;;;;;;18.68;91.59;99598.69;7355958;19;20022;-61
2023/07/15 05:06:01;;;;;;;8.40;0.70;;;;;;;18.70;91.38;99595.78;7358682;19;20054;-62
2023/07/15 05:08:28;;;;;;;9.27;0.88;;;;;;;18.73;91.45;99609.47;7362180;19;20015;-61
2023/07/15 05:10:55;;;;;;;10.98;0.80;;;;;;;18.76;91.82;99600.16;7359752;19;20014;-63
2023/07/15 05:13:23;;;;;;;9.90;0.73;;;;;;;18.79;91.72;99594.38;7358437;19;21046;-62
2023/07/15 05:15:50;;;;;;;10.05;0.70;;;;;;;18.78;91.13;99598.91;7356870;19;20011;-62
2023/07/15 05:18:18;;;;;;;10.70;0.70;;;;;;;18.80;90.83;99598.63;7359721;19;20014;-62
2023/07/15 05:20:45;;;;;;;7.10;0.90;;;;;;;18.82;90.83;99606.41;7362192;19;20466;-62
2023/07/15 05:23:14;;;;;;;8.93;0.77;;;;;;;18.80;90.94;99599.44;7360040;19;20097;-62
2023/07/15 05:25:41;;;;;;;10.75;0.88;;;;;;;18.83;91.51;99605.38;7361487;19;20789;-61
2023/07/15 05:28:08;;;;;;;7.75;0.90;;;;;;;18.83;91.73;99606.19;7360980;19;20026;-61
2023/07/15 05:30:37;;;;;;;9.10;0.88;;;;;;;18.85;91.62;99604.06;7361413;19;20534;-61
2023/07/15 05:33:04;;;;;;;8.88;0.80;;;;;;;18.89;91.75;99607.91;7359916;19;21381;-61
2023/07/15 05:35:31;;;;;;;7.45;0.90;;;;;;;18.91;91.63;99604.97;7362738;19;20010;-61
2023/07/15 05:37:58;;;;;;;7.65;0.98;;;;;;;18.91;91.32;99608.47;7362198;19;20015;-62
2023/07/15 05:40:26;;;;;;;8.07;0.77;;;;;;;18.92;91.66;99603.94;7360903;19;20018;-62
2023/07/15 05:42:53;;;;;;;6.70;1.02;;;;;;;18.95;92.12;99601.59;7359530;19;20025;-62
2023/07/15 05:45:21;;;;;;;5.45;0.63;;;;;;;18.96;92.14;99600.56;7357798;19;20018;-61
2023/07/15 05:47:48;;;;;;;6.50;0.73;;;;;;;18.95;92.27;99598.13;7358087;19;20019;-62
2023/07/15 05:50:16;;;;;;;6.85;1.10;;;;;;;18.96;92.80;99602.41;7357598;19;20015;-62
2023/07/15 05:52:43;;;;;;;11.40;0.82;;;;;;;18.97;92.38;99594.19;7358951;19;20025;-61
2023/07/15 05:55:13;;;;;;;10.00;0.80;;;;;;;19.01;92.60;99597.19;7357516;19;20018;-62
2023/07/15 05:57:41;;;;;;;7.18;0.70;;;;;;;19.03;92.60;99595.91;7358502;19;20014;-62
2023/07/15 06:00:09;;;;;;;6.40;0.65;;;;;;;19.05;92.51;99591.13;7358208;19;20105;-61
2023/07/15 06:02:39;;;;;;;8.32;0.95;;;;;;;19.08;91.84;99592.53;7357401;19;20035;-62
2023/07/15 06:05:07;;;;;;;4.97;0.60;;;;;;;19.12;92.01;99591.00;7354358;19;20022;-62
2023/07/15 06:07:34;;;;;;;7.30;0.65;;;;;;;19.12;91.51;99597.13;7361215;19;20028;-61
2023/07/15 06:10:02;;;;;;;5.32;0.80;;;;;;;19.15;91.38;99598.50;7360339;19;20763;-67
2023/07/15 06:12:30;;;;;;;7.75;0.60;;;;;;;19.14;91.75;99583.56;7359867;19;20842;-62
2023/07/15 06:14:57;;;;;;;5.43;0.80;;;;;;;19.16;91.62;99589.47;7354314;19;20010;-61
2023/07/15 06:17:25;;;;;;;5.95;0.70;;;;;;;19.17;91.49;99596.41;7361948;19;20750;-62
2023/07/15 06:19:52;;;;;;;3.90;0.60;;;;;;;19.18;91.14;99580.19;7357499;19;20146;-61
2023/07/15 06:22:19;;;;;;;6.53;0.90;;;;;;;19.23;91.51;99579.47;7357786;19;20022;-61
2023/07/15 06:24:47;;;;;;;4.85;0.70;;;;;;;19.26;91.72;99589.63;7359162;19;20375;-61
2023/07/15 06:27:14;;;;;;;4.85;0.57;;;;;;;19.29;91.67;99597.19;7361050;19;20013;-61
2023/07/15 06:29:42;;;;;;;9.73;0.93;;;;;;;19.31;91.09;99584.41;7357448;19;20920;-61
2023/07/15 06:32:09;;;;;;;6.30;0.70;;;;;;;19.31;90.98;99584.41;7358550;19;20022;-61
2023/07/15 06:34:37;;;;;;;8.25;0.98;;;;;;;19.34;90.18;99586.59;7356646;19;20359;-61
2023/07/15 06:37:04;;;;;;;11.52;1.00;;;;;;;19.35;90.29;99587.41;7359023;19;20031;-62
2023/07/15 06:39:31;;;;;;;7.35;1.10;;;;;;;19.34;90.19;99581.25;7357830;19;20067;-63
2023/07/15 06:41:58;;;;;;;7.70;0.60;;;;;;;19.36;90.23;99576.47;7358450;19;20015;-61
2023/07/15 06:44:26;;;;;;;7.20;0.90;;;;;;;19.38;89.57;99565.56;7357343;19;20059;-62
2023/07/15 06:46:53;;;;;;;7.68;0.60;;;;;;;19.38;89.74;99569.06;7359527;19;20023;-61
2023/07/15 06:49:20;;;;;;;8.55;0.70;;;;;;;19.42;89.77;99572.03;7355171;19;20019;-62
2023/07/15 06:51:47;;;;;;;6.25;1.30;;;;;;;19.47;89.61;99572.16;7358089;19;20018;-61
2023/07/15 06:54:15;;;;;;;5.18;0.60;;;;;;;19.49;89.46;99567.41;7359145;19;20021;-61
2023/07/15 06:56:42;;;;;;;5.43;0.70;;;;;;;19.52;89.51;99561.56;7359978;19;20047;-62
2023/07/15 06:59:10;;;;;;;11.65;0.70;;;;;;;19.54;89.07;99560.28;7357383;19;20070;-61
2023/07/15 07:01:37;;;;;;;9.27;1.10;;;;;;;19.57;88.78;99565.13;7357385;19;20027;-61
2023/07/15 07:04:05;;;;;;;5.72;0.60;;;;;;;19.57;87.93;99561.66;7356779;19;20566;-62
2023/07/15 07:06:32;;;;;;;7.72;0.90;;;;;;;19.54;87.81;99564.81;7354262;19;20022;-61
2023/07/15 07:08:59;;;;;;;5.00;0.73;;;;;;;19.51;87.04;99567.94;7356105;19;21689;-65
2023/07/15 07:11:26;;;;;;;7.82;0.70;;;;;;;19.52;87.15;99569.56;7358345;19;21885;-61
2023/07/15 07:13:53;;;;;;;7.10;0.85;;;;;;;19.56;87.21;99570.69;7358667;19;20018;-61
2023/07/15 07:16:21;;;;;;;4.70;0.63;;;;;;;19.56;87.09;99573.38;7353159;19;20018;-62
2023/07/15 07:18:48;;;;;;;5.43;0.50;;;;;;;19.56;87.12;99568.03;7356043;19;20018;-62
2023/07/15 07:21:15;;;;;;;5.07;0.80;;;;;;;19.55;86.58;99564.56;7357503;19;20010;-62
2023/07/15 07:23:43;;;;;;;2.53;0.50;;;;;;;19.54;85.47;99567.47;7358300;19;20056;-61
2023/07/15 07:26:10;;;;;;;8.98;0.95;;;;;;;19.58;86.05;99568.59;7359295;19;20038;-62
2023/07/15 07:28:40;;;;;;;5.03;0.63;;;;;;;19.62;85.86;99567.88;7356535;19;20102;-62
2023/07/15 07:31:09;;;;;;;6.93;0.65;;;;;;;19.66;85.46;99576.19;7355471;19;20170;-62
2023/07/15 07:33:38;;;;;;;6.28;0.70;;;;;;;19.72;85.56;99579.75;7356227;19;20034;-62
2023/07/15 07:36:05;;;;;;;5.40;1.00;;;;;;;19.75;84.84;99565.94;7358582;19;20026;-63
2023/07/15 07:38:32;;;;;;;7.35;0.70;;;;;;;19.80;84.40;99574.03;7360712;19;20503;-61
2023/07/15 07:41:05;;;;;;;8.73;0.57;;;;;;;19.85;83.75;99576.78;7361696;19;20018;-64
2023/07/15 07:43:33;;;;;;;4.38;0.60;;;;;;;19.87;84.10;99569.31;7363176;19;20403;-63
2023/07/15 07:46:02;;;;;;;6.53;0.60;;;;;;;19.93;84.24;99581.69;7361766;19;20010;-62
2023/07/15 07:48:30;;;;;;;5.95;0.70;;;;;;;19.93;83.43;99576.34;7362164;19;20047;-62
2023/07/15 07:50:59;;;;;;;5.07;0.70;;;;;;;19.93;83.35;99573.69;7362595;19;20030;-62
2023/07/15 07:53:27;;;;;;;9.02;2.00;;;;;;;20.01;83.14;99575.94;7362507;19;21049;-63
2023/07/15 07:55:54;;;;;;;9.63;1.00;;;;;;;20.17;84.03;99571.59;7361868;19;21146;-62
2023/07/15 07:58:21;;;;;;;9.93;0.82;;;;;;;20.29;82.50;99570.47;7363586;19;20026;-62
2023/07/15 08:00:48;;;;;;;7.45;0.77;;;;;;;20.35;82.02;99564.16;7364794;19;20770;-62
2023/07/15 08:03:16;;;;;;;7.03;1.15;;;;;;;20.42;81.82;99562.09;7361399;19;20098;-62
2023/07/15 08:05:45;;;;;;;4.90;0.60;;;;;;;20.56;81.55;99567.91;7359246;19;20019;-63
2023/07/15 08:08:13;;;;;;;5.43;0.57;;;;;;;20.58;81.25;99573.78;7359852;19;20010;-62
2023/07/15 08:10:40;;;;;;;4.55;1.02;;;;;;;20.56;81.38;99559.88;7363401;19;20018;-61
2023/07/15 08:13:08;;;;;;;5.40;0.50;;;;;;;20.56;81.36;99564.41;7361276;19;20011;-62
2023/07/15 08:15:36;;;;;;;7.85;1.17;;;;;;;20.53;80.33;99573.72;7360744;19;20033;-62
2023/07/15 08:18:04;;;;;;;9.25;0.75;;;;;;;20.47;79.05;99566.69;7357499;19;20060;-62
2023/07/15 08:20:32;;;;;;;6.50;0.80;;;;;;;20.41;78.32;99579.22;7362941;19;20030;-62
2023/07/15 08:23:00;;;;;;;5.35;0.90;;;;;;;20.38;78.49;99560.16;7360492;19;20015;-62
2023/07/15 08:25:27;;;;;;;7.88;0.60;;;;;;;20.36;79.28;99552.41;7361561;19;20035;-62
2023/07/15 08:27:55;;;;;;;8.63;0.60;;;;;;;20.38;78.93;99562.84;7363402;19;20022;-62
2023/07/15 08:30:23;;;;;;;7.50;0.70;;;;;;;20.45;78.91;99556.28;7363952;19;20015;-61
2023/07/15 08:32:50;;;;;;;7.25;0.93;;;;;;;20.54;78.48;99558.50;7360829;19;20495;-61
2023/07/15 08:35:17;;;;;;;8.45;0.70;;;;;;;20.59;77.37;99563.91;7362622;19;20014;-61
2023/07/15 08:37:44;;;;;;;12.98;0.80;;;;;;;20.62;76.88;99561.53;7360924;19;21642;-62
2023/07/15 08:40:12;;;;;;;8.48;1.00;;;;;;;20.66;76.36;99556.50;7363645;19;20784;-62
2023/07/15 08:42:41;;;;;;;7.82;0.65;;;;;;;20.68;75.78;99552.50;7359468;19;20337;-62
2023/07/15 08:45:09;;;;;;;8.82;0.70;;;;;;;20.74;76.76;99551.53;7363624;19;20086;-62
2023/07/15 08:47:39;;;;;;;6.88;1.58;;;;;;;20.79;76.96;99537.41;7359414;19;20134;-64
2023/07/15 08:50:12;;;;;;;9.48;1.35;;;;;;;20.89;77.77;99548.19;7357770;19;20040;-62
2023/07/15 08:52:40;;;;;;;;;;;;;;;20.95;75.94;99557.09;7361226;19;20689;-62
2023/07/15 08:55:08;;;;;;;8.40;0.80;;;;;;;20.91;75.40;99562.94;7321038;19;19911;-61
2023/07/15 08:57:35;;;;;;;10.40;1.27;;;;;;;20.94;74.65;99550.94;7361385;19;20081;-61
2023/07/15 09:00:08;;;;;;;8.30;1.15;;;;;;;20.91;74.24;99546.91;7362401;19;20015;-62
2023/07/15 09:02:37;;;;;;;12.05;1.13;;;;;;;20.96;73.70;99561.38;7349313;19;20014;-61
2023/07/15 09:05:07;;;;;;;9.60;1.13;;;;;;;21.02;73.05;99555.03;7360047;19;20031;-62
2023/07/15 09:07:49;;;;;;;9.57;1.42;;;;;;;21.09;74.45;99558.28;7358885;19;20573;-62
2023/07/15 09:10:16;;;;;;;10.27;1.25;;;;;;;21.11;73.29;99569.56;7361503;19;21149;-61
2023/07/15 09:12:45;;;;;;;7.78;0.73;;;;;;;21.16;73.11;99562.44;7361597;19;20006;-62
2023/07/15 09:15:13;;;;;;;11.45;1.52;;;;;;;21.29;72.96;99571.91;7363350;19;20022;-63
2023/07/15 09:17:42;;;;;;;11.18;1.55;;;;;;;21.50;72.18;99570.22;7358214;19;20018;-63
2023/07/15 09:20:14;;;;;;;9.52;1.73;;;;;;;21.69;70.01;99577.59;7356732;19;20513;-61
2023/07/15 09:22:41;;;;;;;;;;;;;;;21.63;69.50;99567.94;7353757;19;20150;-62
2023/07/15 09:25:10;;;;;;;11.30;0.90;;;;;;;21.55;71.13;99581.75;7354682;19;20263;-61
2023/07/15 09:27:42;;;;;;;6.32;0.98;;;;;;;21.51;71.71;99569.97;7359082;19;20020;-61
2023/07/15 09:30:10;;;;;;;10.80;1.20;;;;;;;21.54;72.49;99579.34;7360316;19;20148;-61
2023/07/15 09:32:37;;;;;;;8.07;0.90;;;;;;;21.54;70.48;99573.97;7361929;19;20024;-61
2023/07/15 09:35:06;;;;;;;11.23;1.13;;;;;;;21.58;69.71;99591.19;7358615;19;20019;-62
2023/07/15 09:37:34;;;;;;;5.90;0.70;;;;;;;21.59;69.98;99579.38;7362378;19;20542;-62
2023/07/15 09:40:07;;;;;;;4.90;0.70;;;;;;;21.51;70.26;99574.50;7358538;19;20022;-63
2023/07/15 09:42:50;;;;;;;5.35;0.90;;;;;;;21.37;70.54;99587.50;7353133;19;20432;-62
2023/07/15 09:45:30;;;;;;;6.63;0.82;;;;;;;21.28;73.16;99589.81;7359969;19;20022;-62
2023/07/15 09:47:58;;;;;;;5.78;1.00;;;;;;;21.17;74.98;99587.31;7357843;19;20059;-61
2023/07/15 09:50:26;;;;;;;3.03;0.50;;;;;;;21.01;76.26;99588.19;7358521;19;20475;-61
2023/07/15 09:52:54;;;;;;;4.30;0.50;;;;;;;20.83;77.37;99600.00;7358036;19;20368;-61
2023/07/15 09:55:23;;;;;;;5.35;0.50;;;;;;;20.68;78.95;99600.63;7355359;19;20022;-61
2023/07/15 09:57:56;;;;;;;8.13;0.90;;;;;;;20.60;79.98;99594.94;7359656;19;20808;-62
2023/07/15 10:00:27;;;;;;;8.13;0.60;;;;;;;20.54;80.74;99601.25;7360737;19;21026;-63
2023/07/15 10:02:59;;;;;;;5.55;1.15;;;;;;;20.52;81.66;99598.06;7357904;19;20015;-62
2023/07/15 10:05:27;;;;;;;9.03;0.70;;;;;;;20.54;81.84;99607.41;7359510;19;21665;-61
2023/07/15 10:07:55;;;;;;;6.63;0.75;;;;;;;20.58;81.02;99611.22;7356029;19;20023;-61
2023/07/15 10:10:23;;;;;;;5.25;0.70;;;;;;;20.61;80.24;99604.56;7364383;19;20028;-61
2023/07/15 10:12:51;;;;;;;5.65;0.95;;;;;;;20.71;79.91;99594.00;7359287;19;20025;-62
2023/07/15 10:15:19;;;;;;;7.35;0.93;;;;;;;20.77;78.38;99583.13;7361252;19;20014;-62
2023/07/15 10:17:46;;;;;;;6.78;0.75;;;;;;;20.83;77.85;99600.81;7356684;19;20665;-61
2023/07/15 10:20:14;;;;;;;7.82;0.57;;;;;;;20.89;74.89;99597.16;7355554;19;20566;-62
2023/07/15 10:22:47;;;;;;;6.55;0.70;;;;;;;20.97;69.35;99603.94;7358275;19;20018;-62
2023/07/15 10:25:15;;;;;;;7.00;1.08;;;;;;;21.11;69.20;99591.78;7359304;19;20029;-62
2023/07/15 10:27:43;;;;;;;6.38;0.80;;;;;;;21.31;68.31;99588.53;7356912;19;20014;-63
2023/07/15 10:30:22;;;;;;;10.98;0.75;;;;;;;21.40;66.18;99608.41;7354708;19;20145;-61
2023/07/15 10:33:00;;;;;;;7.18;0.88;;;;;;;21.56;66.25;99620.88;7358510;19;20010;-61
2023/07/15 10:35:32;;;;;;;7.40;0.55;;;;;;;21.65;65.52;99613.97;7358385;19;20003;-62
2023/07/15 10:38:25;;;;;;;10.68;0.75;;;;;;;21.77;67.31;99617.31;7360209;19;20036;-62
2023/07/15 10:41:00;;;;;;;6.30;0.52;;;;;;;21.84;65.11;99603.69;7359126;19;20022;-61
2023/07/15 10:43:37;;;;;;;8.95;0.73;;;;;;;21.90;65.16;99591.13;7354856;19;20022;-62
2023/07/15 10:46:07;;;;;;;5.40;0.70;;;;;;;22.00;65.63;99604.63;7360315;19;20917;-61
2023/07/15 10:48:36;;;;;;;11.77;1.50;;;;;;;22.08;63.82;99601.47;7354997;19;20178;-62
2023/07/15 10:51:05;;;;;;;6.72;0.70;;;;;;;22.13;62.61;99609.56;7356790;19;20025;-60
2023/07/15 10:53:33;;;;;;;10.65;1.70;;;;;;;22.16;64.57;99604.47;7358340;19;20044;-63
2023/07/15 10:56:10;;;;;;;8.48;0.70;;;;;;;22.18;62.50;99614.94;7357301;19;20018;-61
2023/07/15 10:58:40;;;;;;;5.07;0.52;;;;;;;22.16;61.50;99601.78;7356657;19;20014;-62
2023/07/15 11:01:10;;;;;;;7.85;0.70;;;;;;;22.21;62.47;99589.47;7358203;19;20463;-62
2023/07/15 11:03:41;;;;;;;8.70;0.60;;;;;;;22.16;61.92;99596.44;7356034;19;20367;-61
2023/07/15 11:06:09;;;;;;;6.18;0.70;;;;;;;22.13;62.03;99588.94;7359063;19;20040;-61
2023/07/15 11:08:39;;;;;;;9.23;0.57;;;;;;;22.14;61.24;99600.47;7357447;19;20026;-61
2023/07/15 11:11:10;;;;;;;8.63;0.80;;;;;;;22.18;64.43;99594.31;7361639;19;20024;-62
2023/07/15 11:13:40;;;;;;;6.65;0.75;;;;;;;22.22;61.31;99589.22;7363092;19;20006;-62
2023/07/15 11:16:08;;;;;;;7.68;0.57;;;;;;;22.21;61.28;99592.16;7365121;19;20086;-62
2023/07/15 11:18:35;;;;;;;4.25;0.73;;;;;;;22.29;61.58;99602.41;7361491;19;20029;-62
2023/07/15 11:21:02;;;;;;;5.35;0.73;;;;;;;22.28;60.45;99604.28;7358987;19;20019;-62
2023/07/15 11:23:31;;;;;;;7.80;0.80;;;;;;;22.24;60.30;99584.44;7363402;19;20023;-61
2023/07/15 11:26:08;;;;;;;7.28;0.63;;;;;;;22.24;61.00;99592.47;7365935;19;20097;-62
2023/07/15 11:28:47;;;;;;;6.68;0.60;;;;;;;22.21;62.22;99587.63;7364165;19;20106;-62
2023/07/15 11:31:15;;;;;;;5.60;0.52;;;;;;;22.16;60.95;99596.44;7365249;19;20018;-62
2023/07/15 11:33:43;;;;;;;5.47;0.70;;;;;;;22.15;59.76;99578.75;7361866;19;20018;-61
2023/07/15 11:36:10;;;;;;;14.65;1.30;;;;;;;22.13;60.61;99594.28;7366275;19;20026;-62
2023/07/15 11:38:39;;;;;;;7.40;0.50;;;;;;;22.13;61.30;99588.13;7364130;19;20054;-62